Time;durP1;ratioP1;P1;durP2;ratioP2;P2;SDS_P1;SDS_P2;PMS_P1;PMS_P2;Temp;Humidity;BMP_temperature;BMP_pressure;BME280_temperature;BME280_humidity;BME280_pressure;Samples;Min_cycle;Max_cycle;Signal;HPM_P1;HPM_P2
2023/12/06 00:00:14;;;;;;;2.75;2.55;;;4.60;99.90;;;;;;5072414;28;20224;-61
2023/12/06 00:02:42;;;;;;;3.00;2.78;;;4.60;99.90;;;;;;5065581;28;20209;-60
2023/12/06 00:05:10;;;;;;;2.72;2.63;;;4.60;99.90;;;;;;5072228;28;20244;-61
2023/12/06 00:07:38;;;;;;;2.70;2.60;;;4.60;99.90;;;;;;5070282;28;20232;-61
2023/12/06 00:10:07;;;;;;;3.85;2.85;;;4.60;99.90;;;;;;5071564;28;20228;-61
2023/12/06 00:12:35;;;;;;;2.40;2.30;;;4.60;99.90;;;;;;5072805;28;20205;-61
2023/12/06 00:15:03;;;;;;;3.17;2.65;;;4.60;99.90;;;;;;5079777;28;20220;-61
2023/12/06 00:17:32;;;;;;;3.45;3.15;;;4.60;99.90;;;;;;5078367;28;20229;-60
2023/12/06 00:20:00;;;;;;;2.33;2.22;;;4.60;99.90;;;;;;5072833;28;20768;-61
2023/12/06 00:22:28;;;;;;;3.30;3.00;;;4.60;99.90;;;;;;5070853;28;20219;-61
2023/12/06 00:24:56;;;;;;;3.25;3.05;;;4.60;99.90;;;;;;5070462;28;20240;-61
2023/12/06 00:27:24;;;;;;;4.13;3.15;;;4.60;99.90;;;;;;5070542;28;20221;-61
2023/12/06 00:29:52;;;;;;;2.33;2.22;;;4.60;99.90;;;;;;5070602;28;20247;-60
2023/12/06 00:32:20;;;;;;;2.50;2.40;;;4.60;99.90;;;;;;5066473;28;20290;-60
2023/12/06 00:34:49;;;;;;;3.38;3.08;;;4.60;99.90;;;;;;5068079;28;20212;-61
2023/12/06 00:37:17;;;;;;;2.80;2.65;;;4.60;99.90;;;;;;5082929;28;20263;-60
2023/12/06 00:39:45;;;;;;;3.10;2.83;;;4.60;99.90;;;;;;5077698;28;20202;-61
2023/12/06 00:42:13;;;;;;;2.25;2.15;;;4.60;99.90;;;;;;5074500;28;20300;-61
2023/12/06 00:44:41;;;;;;;2.72;2.53;;;4.60;99.90;;;;;;5073764;28;20204;-60
2023/12/06 00:47:09;;;;;;;3.08;2.88;;;4.60;99.90;;;;;;5081068;28;20229;-60
2023/12/06 00:49:37;;;;;;;2.67;2.47;;;4.60;99.90;;;;;;5074180;28;20229;-61
2023/12/06 00:52:06;;;;;;;2.42;2.22;;;4.60;99.90;;;;;;5077508;28;20215;-60
2023/12/06 00:54:34;;;;;;;2.20;2.10;;;4.60;99.90;;;;;;5067650;28;20197;-60
2023/12/06 00:57:02;;;;;;;2.17;2.08;;;4.60;99.90;;;;;;5075183;28;20221;-61
2023/12/06 00:59:30;;;;;;;2.75;2.55;;;4.60;99.90;;;;;;5074811;28;20213;-60
2023/12/06 01:01:58;;;;;;;2.50;2.40;;;4.60;99.90;;;;;;5077558;28;20205;-60
2023/12/06 01:04:26;;;;;;;1.95;1.85;;;4.60;99.90;;;;;;5075423;28;20292;-61
2023/12/06 01:06:54;;;;;;;2.15;2.05;;;4.60;99.90;;;;;;5073018;28;20701;-61
2023/12/06 01:09:23;;;;;;;2.30;2.10;;;4.60;99.90;;;;;;5073516;28;20604;-61
2023/12/06 01:11:51;;;;;;;2.00;1.90;;;4.60;99.90;;;;;;5073946;28;20213;-61
2023/12/06 01:14:21;;;;;;;2.10;2.00;;;4.60;99.90;;;;;;5081310;28;20216;-60
2023/12/06 01:16:50;;;;;;;2.42;2.30;;;4.60;99.90;;;;;;5079214;28;20303;-61
2023/12/06 01:19:18;;;;;;;2.15;1.98;;;4.60;99.90;;;;;;5076122;22;20257;-60
2023/12/06 01:21:47;;;;;;;2.20;2.10;;;4.60;99.90;;;;;;5054385;28;20216;-60
2023/12/06 01:24:14;;;;;;;2.35;2.25;;;4.60;99.90;;;;;;5058074;28;20209;-60
2023/12/06 01:26:44;;;;;;;2.88;2.67;;;4.60;99.90;;;;;;5058554;28;20262;-59
2023/12/06 01:29:12;;;;;;;2.28;2.17;;;4.60;99.90;;;;;;5069996;28;20332;-60
2023/12/06 01:31:40;;;;;;;2.97;2.78;;;4.60;99.90;;;;;;5073052;28;20205;-55
2023/12/06 01:34:08;;;;;;;3.00;2.55;;;4.60;99.90;;;;;;5081016;28;20669;-55
2023/12/06 01:36:36;;;;;;;2.88;2.67;;;4.60;99.90;;;;;;5075079;28;20678;-55
2023/12/06 01:39:04;;;;;;;2.90;2.70;;;4.50;99.90;;;;;;5072877;28;20221;-60
2023/12/06 01:41:31;;;;;;;2.85;2.75;;;4.60;99.90;;;;;;5080410;28;20235;-58
2023/12/06 01:44:01;;;;;;;3.28;2.53;;;4.50;99.90;;;;;;5072969;28;20650;-60
2023/12/06 01:46:28;;;;;;;3.38;2.95;;;4.50;99.90;;;;;;5071976;28;20205;-59
2023/12/06 01:48:56;;;;;;;2.50;2.40;;;4.50;99.90;;;;;;5075719;28;20268;-58
2023/12/06 01:51:24;;;;;;;2.53;2.42;;;4.50;99.90;;;;;;5074987;28;20255;-59
2023/12/06 01:53:53;;;;;;;2.67;2.50;;;4.50;99.90;;;;;;5074493;28;20216;-59
2023/12/06 01:56:21;;;;;;;2.95;2.35;;;4.50;99.90;;;;;;5072461;28;20209;-60
2023/12/06 01:58:50;;;;;;;1.98;1.88;;;4.50;99.90;;;;;;5073655;28;20240;-59
2023/12/06 02:01:19;;;;;;;4.03;2.28;;;4.50;99.90;;;;;;5072717;28;20710;-59
2023/12/06 02:03:47;;;;;;;2.53;2.33;;;4.50;99.90;;;;;;5073656;28;20209;-59
2023/12/06 02:06:15;;;;;;;2.67;2.47;;;4.60;99.90;;;;;;5073371;28;20200;-58
2023/12/06 02:08:43;;;;;;;3.78;2.25;;;4.60;99.90;;;;;;5076577;28;20285;-59
2023/12/06 02:11:11;;;;;;;3.00;2.80;;;4.60;99.90;;;;;;5074369;28;20275;-60
2023/12/06 02:13:39;;;;;;;2.88;2.58;;;4.60;99.90;;;;;;5076462;28;20205;-60
2023/12/06 02:16:08;;;;;;;2.70;2.60;;;4.60;99.90;;;;;;5071616;28;20292;-59
2023/12/06 02:18:37;;;;;;;2.78;2.67;;;4.60;99.90;;;;;;5078962;28;20233;-59
2023/12/06 02:21:05;;;;;;;2.88;2.67;;;4.60;99.90;;;;;;5072059;28;20938;-59
2023/12/06 02:23:36;;;;;;;2.70;2.50;;;4.60;99.90;;;;;;5071862;28;20242;-60
2023/12/06 02:26:06;;;;;;;2.53;2.17;;;4.60;99.90;;;;;;5071606;28;20201;-59
2023/12/06 02:28:34;;;;;;;2.25;2.05;;;4.60;99.90;;;;;;5071438;28;20221;-58
2023/12/06 02:31:02;;;;;;;2.05;1.95;;;4.60;99.90;;;;;;5076951;28;20201;-58
2023/12/06 02:33:30;;;;;;;2.00;1.90;;;4.50;99.90;;;;;;5074437;28;20212;-60
2023/12/06 02:35:59;;;;;;;1.88;1.85;;;4.50;99.90;;;;;;5075835;28;20246;-59
2023/12/06 02:38:27;;;;;;;2.90;2.03;;;4.50;99.90;;;;;;5070386;28;20267;-59
2023/12/06 02:40:55;;;;;;;2.20;2.10;;;4.60;99.90;;;;;;5071733;28;20708;-56
2023/12/06 02:43:24;;;;;;;2.15;1.88;;;4.50;99.90;;;;;;5070946;28;20229;-60
2023/12/06 02:45:52;;;;;;;1.98;1.88;;;4.50;99.90;;;;;;5071409;28;20747;-60
2023/12/06 02:48:20;;;;;;;2.03;1.92;;;4.50;99.90;;;;;;5079057;28;20225;-59
2023/12/06 02:50:48;;;;;;;2.50;2.40;;;4.50;99.90;;;;;;5069956;28;20197;-59
2023/12/06 02:53:16;;;;;;;2.30;2.20;;;4.50;99.90;;;;;;5074239;28;20259;-60
2023/12/06 02:55:44;;;;;;;2.17;1.95;;;4.50;99.90;;;;;;5075711;28;20216;-59
2023/12/06 02:58:12;;;;;;;3.20;3.00;;;4.50;99.90;;;;;;5076380;28;20221;-60
2023/12/06 03:00:41;;;;;;;2.83;2.63;;;4.40;99.90;;;;;;5075750;28;20200;-61
2023/12/06 03:03:09;;;;;;;2.95;2.75;;;4.40;99.90;;;;;;5074126;28;20672;-61
2023/12/06 03:05:37;;;;;;;3.00;2.80;;;4.40;99.90;;;;;;5077158;28;20213;-61
2023/12/06 03:08:05;;;;;;;4.20;2.92;;;4.40;99.90;;;;;;5075518;28;20268;-60
2023/12/06 03:10:33;;;;;;;3.30;2.80;;;4.40;99.90;;;;;;5071148;28;20824;-60
2023/12/06 03:13:01;;;;;;;3.10;2.90;;;4.40;99.90;;;;;;5072059;28;20204;-60
2023/12/06 03:15:29;;;;;;;3.13;2.95;;;4.50;99.90;;;;;;5078846;28;20205;-60
2023/12/06 03:17:58;;;;;;;5.00;2.95;;;4.50;99.90;;;;;;5073524;28;20278;-59
2023/12/06 03:20:26;;;;;;;3.15;2.95;;;4.50;99.90;;;;;;5079656;28;20197;-61
2023/12/06 03:22:54;;;;;;;3.90;3.60;;;4.50;99.90;;;;;;5071953;28;20681;-59
2023/12/06 03:25:22;;;;;;;5.70;5.20;;;4.50;99.90;;;;;;5076303;28;20297;-59
2023/12/06 03:27:51;;;;;;;6.68;4.70;;;4.50;99.90;;;;;;5071002;28;20705;-59
2023/12/06 03:30:19;;;;;;;4.80;4.10;;;4.50;99.90;;;;;;5077052;28;20313;-59
2023/12/06 03:33:02;;;;;;;5.38;4.95;;;4.50;99.90;;;;;;5070727;28;20205;-54
2023/12/06 03:35:30;;;;;;;7.25;5.43;;;4.50;99.90;;;;;;5066452;28;20236;-54
2023/12/06 03:37:57;;;;;;;5.53;5.03;;;4.50;99.90;;;;;;5071697;28;20792;-55
2023/12/06 03:40:25;;;;;;;6.35;4.90;;;4.50;99.90;;;;;;5073024;28;20289;-57
2023/12/06 03:42:53;;;;;;;10.23;5.43;;;4.50;99.90;;;;;;5075706;28;20209;-59
2023/12/06 03:45:22;;;;;;;7.03;5.25;;;4.50;99.90;;;;;;5080438;28;20288;-57
2023/12/06 03:47:50;;;;;;;5.70;5.18;;;4.50;99.90;;;;;;5076878;28;20227;-55
2023/12/06 03:50:20;;;;;;;6.57;5.97;;;4.60;99.90;;;;;;5073929;28;20224;-54
2023/12/06 03:52:48;;;;;;;7.30;6.60;;;4.60;99.90;;;;;;5070528;28;20266;-57
2023/12/06 03:55:15;;;;;;;6.57;6.05;;;4.50;99.90;;;;;;5073051;28;20282;-58
2023/12/06 03:57:44;;;;;;;7.25;6.55;;;4.50;99.90;;;;;;5070668;28;20580;-56
2023/12/06 04:00:13;;;;;;;9.70;6.65;;;4.50;99.90;;;;;;5071993;28;20658;-60
2023/12/06 04:02:42;;;;;;;7.20;6.30;;;4.50;99.90;;;;;;5076101;28;20209;-58
2023/12/06 04:05:10;;;;;;;7.63;6.07;;;4.50;99.90;;;;;;5076402;28;20248;-58
2023/12/06 04:07:40;;;;;;;7.28;6.55;;;4.50;99.90;;;;;;5070698;28;20205;-56
2023/12/06 04:10:08;;;;;;;7.38;6.20;;;4.60;99.90;;;;;;5073604;28;20267;-60
2023/12/06 04:12:37;;;;;;;9.50;7.10;;;4.50;99.90;;;;;;5074971;28;20201;-58
2023/12/06 04:15:06;;;;;;;8.05;7.25;;;4.60;99.90;;;;;;5078848;28;20217;-60
2023/12/06 04:17:34;;;;;;;8.18;7.38;;;4.50;99.90;;;;;;5068538;28;20201;-59
2023/12/06 04:20:03;;;;;;;8.38;7.20;;;4.50;99.90;;;;;;5078567;28;20208;-59
2023/12/06 04:22:31;;;;;;;7.80;7.15;;;4.50;99.90;;;;;;5078150;28;20196;-59
2023/12/06 04:25:01;;;;;;;7.90;7.20;;;4.50;99.90;;;;;;5076213;28;20205;-60
2023/12/06 04:27:29;;;;;;;7.55;6.88;;;4.50;99.90;;;;;;5073143;28;20236;-59
2023/12/06 04:29:56;;;;;;;7.43;6.75;;;4.50;99.90;;;;;;5073990;28;20761;-59
2023/12/06 04:32:24;;;;;;;7.45;6.10;;;4.50;99.90;;;;;;5074167;28;20259;-59
2023/12/06 04:34:54;;;;;;;7.07;6.45;;;4.60;99.90;;;;;;5074901;28;20205;-59
2023/12/06 04:37:21;;;;;;;7.90;7.10;;;4.60;99.90;;;;;;5079612;28;20662;-60
2023/12/06 04:39:50;;;;;;;9.38;7.55;;;4.60;99.90;;;;;;5074463;28;20201;-60
2023/12/06 04:42:20;;;;;;;9.07;7.60;;;4.60;99.90;;;;;;5073909;28;20216;-59
2023/12/06 04:44:48;;;;;;;10.00;7.28;;;4.60;99.90;;;;;;5079713;28;20294;-54
2023/12/06 04:47:16;;;;;;;9.02;7.38;;;4.60;99.90;;;;;;5074046;28;20209;-54
2023/12/06 04:49:45;;;;;;;9.63;7.82;;;4.60;99.90;;;;;;5074121;28;20325;-55
2023/12/06 04:52:13;;;;;;;8.48;7.32;;;4.60;99.90;;;;;;5074298;28;20283;-60
2023/12/06 04:54:41;;;;;;;8.00;7.20;;;4.60;99.90;;;;;;5076418;28;20201;-54
2023/12/06 04:57:09;;;;;;;8.88;7.57;;;4.60;99.90;;;;;;5073696;28;20697;-58
2023/12/06 04:59:39;;;;;;;8.60;7.47;;;4.60;99.90;;;;;;5066225;28;20213;-61
2023/12/06 05:02:07;;;;;;;8.20;7.40;;;4.60;99.90;;;;;;5073523;28;20300;-62
2023/12/06 05:04:35;;;;;;;7.28;6.57;;;4.60;99.90;;;;;;5075645;28;20711;-61
2023/12/06 05:07:03;;;;;;;7.30;6.60;;;4.60;99.90;;;;;;5074627;28;20611;-61
2023/12/06 05:09:31;;;;;;;7.90;7.10;;;4.60;99.90;;;;;;5075110;28;20658;-61
2023/12/06 05:11:59;;;;;;;7.78;7.07;;;4.60;99.90;;;;;;5073449;28;20208;-59
2023/12/06 05:14:27;;;;;;;7.72;6.47;;;4.60;99.90;;;;;;5073181;28;20262;-61
2023/12/06 05:16:57;;;;;;;7.90;6.63;;;4.60;99.90;;;;;;5073986;28;20623;-60
2023/12/06 05:19:26;;;;;;;7.40;6.70;;;4.60;99.90;;;;;;5078542;28;20255;-61
2023/12/06 05:21:54;;;;;;;8.05;6.63;;;4.60;99.90;;;;;;5077180;28;20205;-55
2023/12/06 05:24:22;;;;;;;7.32;6.28;;;4.60;99.90;;;;;;5076932;28;20213;-57
2023/12/06 05:26:50;;;;;;;7.13;6.05;;;4.50;99.90;;;;;;5072365;28;20209;-54
2023/12/06 05:29:18;;;;;;;7.72;6.93;;;4.50;99.90;;;;;;5074053;28;20617;-55
2023/12/06 05:31:46;;;;;;;9.57;6.90;;;4.60;99.90;;;;;;5075227;28;20658;-60
2023/12/06 05:34:15;;;;;;;7.35;6.57;;;4.50;99.90;;;;;;5079705;28;20224;-59
2023/12/06 05:36:43;;;;;;;6.80;6.10;;;4.50;99.90;;;;;;5077233;28;20205;-59
2023/12/06 05:39:11;;;;;;;9.07;6.70;;;4.50;99.90;;;;;;5071850;28;20662;-59
2023/12/06 05:41:40;;;;;;;7.45;6.30;;;4.50;99.90;;;;;;5072997;28;20216;-54
2023/12/06 05:44:07;;;;;;;7.80;6.55;;;4.50;99.90;;;;;;5076223;28;20645;-54
2023/12/06 05:46:35;;;;;;;8.00;5.90;;;4.50;99.90;;;;;;5074953;28;20205;-55
2023/12/06 05:49:03;;;;;;;7.55;6.75;;;4.60;99.90;;;;;;5072572;28;20755;-55
2023/12/06 05:51:33;;;;;;;7.10;6.47;;;4.60;99.90;;;;;;5068163;28;20589;-54
2023/12/06 05:54:01;;;;;;;6.63;6.03;;;4.60;99.90;;;;;;5073081;28;20237;-60
2023/12/06 05:56:28;;;;;;;8.25;5.60;;;4.60;99.90;;;;;;5072747;28;20649;-59
2023/12/06 05:58:57;;;;;;;6.90;6.20;;;4.60;99.90;;;;;;5072610;28;20229;-59
2023/12/06 06:01:25;;;;;;;7.40;6.47;;;4.60;99.90;;;;;;5067776;28;20198;-59
2023/12/06 06:03:53;;;;;;;8.90;7.30;;;4.60;99.90;;;;;;5074176;28;20215;-59
2023/12/06 06:06:21;;;;;;;6.93;6.28;;;4.60;99.90;;;;;;5076778;28;20291;-60
2023/12/06 06:08:50;;;;;;;8.18;6.70;;;4.60;99.90;;;;;;5073428;28;20685;-60
2023/12/06 06:11:18;;;;;;;8.55;7.07;;;4.70;99.90;;;;;;5075261;28;20225;-60
2023/12/06 06:13:46;;;;;;;8.77;6.68;;;4.60;99.90;;;;;;5071877;28;20232;-61
2023/12/06 06:16:16;;;;;;;7.50;6.70;;;4.60;99.90;;;;;;5070676;28;20202;-57
2023/12/06 06:18:44;;;;;;;7.32;6.05;;;4.70;99.90;;;;;;5069484;28;20239;-61
2023/12/06 06:21:12;;;;;;;7.20;6.43;;;4.70;99.90;;;;;;5073959;28;20199;-61
2023/12/06 06:23:40;;;;;;;10.00;6.35;;;4.70;99.90;;;;;;5064260;28;20300;-60
2023/12/06 06:26:10;;;;;;;9.25;7.13;;;4.70;99.90;;;;;;5070552;28;20296;-61
2023/12/06 06:28:38;;;;;;;8.27;6.13;;;4.80;99.90;;;;;;5071395;28;20225;-59
2023/12/06 06:31:05;;;;;;;8.65;7.55;;;4.70;99.90;;;;;;5070995;28;20641;-59
2023/12/06 06:33:34;;;;;;;8.32;6.70;;;4.80;99.90;;;;;;5066084;28;20213;-58
2023/12/06 06:36:02;;;;;;;7.72;6.95;;;4.80;99.90;;;;;;5071032;28;20678;-60
2023/12/06 06:38:30;;;;;;;8.77;7.25;;;4.70;99.90;;;;;;5071298;28;20646;-60
2023/12/06 06:40:58;;;;;;;8.23;6.28;;;4.70;99.90;;;;;;5069969;28;20627;-59
2023/12/06 06:43:28;;;;;;;7.00;6.18;;;4.70;99.90;;;;;;5071187;28;20323;-60
2023/12/06 06:45:56;;;;;;;8.70;7.30;;;4.70;99.90;;;;;;5069034;28;20258;-60
2023/12/06 06:48:24;;;;;;;9.93;7.72;;;4.70;99.90;;;;;;5070917;28;20229;-59
2023/12/06 06:50:52;;;;;;;10.48;8.15;;;4.70;99.90;;;;;;5071218;28;20260;-60
2023/12/06 06:53:20;;;;;;;12.32;7.70;;;4.80;99.90;;;;;;5070767;28;20681;-59
2023/12/06 06:55:48;;;;;;;7.72;6.90;;;4.80;99.90;;;;;;5070888;28;20263;-59
2023/12/06 06:58:16;;;;;;;8.32;6.90;;;4.80;99.90;;;;;;5070939;28;20227;-57
2023/12/06 07:00:45;;;;;;;7.65;6.80;;;4.80;99.90;;;;;;5067989;28;20193;-59
2023/12/06 07:03:13;;;;;;;8.52;6.90;;;4.80;99.90;;;;;;5070497;28;20205;-55
2023/12/06 07:05:41;;;;;;;6.95;6.25;;;4.70;99.90;;;;;;5071096;28;20205;-57
2023/12/06 07:08:10;;;;;;;6.85;6.15;;;4.70;99.90;;;;;;5070886;28;20228;-57
2023/12/06 07:10:38;;;;;;;8.32;6.05;;;4.70;99.90;;;;;;5076317;28;20209;-56
2023/12/06 07:13:06;;;;;;;7.60;6.82;;;4.60;99.90;;;;;;5070404;28;20240;-58
2023/12/06 07:15:34;;;;;;;8.32;7.00;;;4.60;99.90;;;;;;5070236;28;20201;-57
2023/12/06 07:18:04;;;;;;;7.28;6.30;;;4.60;99.90;;;;;;5093669;22;20268;-59
2023/12/06 07:20:32;;;;;;;6.70;5.82;;;4.50;99.90;;;;;;5050421;28;20210;-58
2023/12/06 07:23:10;;;;;;;8.38;6.22;;;4.50;99.90;;;;;;5050319;28;20201;-59
2023/12/06 07:25:38;;;;;;;8.18;6.40;;;4.40;99.90;;;;;;5050592;28;20744;-59
2023/12/06 07:28:06;;;;;;;11.98;7.38;;;4.40;99.90;;;;;;5050411;28;20249;-60
2023/12/06 07:30:34;;;;;;;8.65;6.90;;;4.30;99.90;;;;;;5050631;28;20220;-57
2023/12/06 07:33:03;;;;;;;8.30;6.70;;;4.30;99.90;;;;;;5049951;28;20620;-57
2023/12/06 07:35:31;;;;;;;10.40;6.85;;;4.30;99.90;;;;;;5049733;28;20275;-59
2023/12/06 07:37:59;;;;;;;7.60;6.35;;;4.20;99.90;;;;;;5050010;28;20202;-57
2023/12/06 07:40:27;;;;;;;8.52;7.18;;;4.10;99.90;;;;;;5050411;28;21501;-58
2023/12/06 07:42:55;;;;;;;9.05;6.70;;;4.20;99.90;;;;;;5050480;28;20617;-59
2023/12/06 07:45:23;;;;;;;9.60;7.40;;;4.10;99.90;;;;;;5052309;28;20202;-59
2023/12/06 07:47:52;;;;;;;14.07;7.68;;;4.10;99.90;;;;;;5054312;28;20288;-58
2023/12/06 07:50:22;;;;;;;7.53;6.68;;;4.10;99.90;;;;;;5054566;28;20627;-58
2023/12/06 07:52:51;;;;;;;8.45;7.05;;;4.10;99.90;;;;;;5054607;28;20232;-58
2023/12/06 07:55:18;;;;;;;9.23;6.75;;;4.10;99.90;;;;;;5054682;28;20251;-57
2023/12/06 07:57:51;;;;;;;9.40;8.00;;;4.10;99.90;;;;;;5054295;28;20202;-58
2023/12/06 08:00:22;;;;;;;8.27;6.95;;;4.10;99.90;;;;;;5054299;28;20206;-58
2023/12/06 08:02:50;;;;;;;9.18;7.82;;;4.10;99.90;;;;;;5050553;28;20205;-58
2023/12/06 08:05:19;;;;;;;10.27;8.00;;;4.10;99.90;;;;;;5054412;28;20210;-58
2023/12/06 08:07:49;;;;;;;9.35;7.40;;;4.10;99.90;;;;;;5048557;28;20652;-59
2023/12/06 08:10:22;;;;;;;9.52;7.95;;;4.10;99.90;;;;;;5054383;28;20214;-58
2023/12/06 08:12:53;;;;;;;9.70;8.07;;;4.10;99.90;;;;;;5050012;28;20253;-59
2023/12/06 08:15:22;;;;;;;13.77;8.38;;;4.20;99.90;;;;;;5054399;28;20213;-58
2023/12/06 08:17:50;;;;;;;9.40;7.78;;;4.10;99.90;;;;;;5054266;28;20252;-58
2023/12/06 08:20:19;;;;;;;8.65;7.15;;;4.20;99.90;;;;;;5054274;28;20202;-60
2023/12/06 08:22:46;;;;;;;11.43;8.35;;;4.10;99.90;;;;;;5052808;28;20213;-59
2023/12/06 08:25:16;;;;;;;10.60;8.18;;;4.10;99.90;;;;;;5054731;28;20271;-58
2023/12/06 08:27:44;;;;;;;9.80;8.05;;;4.10;99.90;;;;;;5052689;28;20205;-59
2023/12/06 08:30:13;;;;;;;8.65;7.57;;;4.20;99.90;;;;;;5053028;28;20202;-59
2023/12/06 08:32:41;;;;;;;10.15;8.02;;;4.20;99.90;;;;;;5052941;28;20245;-58
2023/12/06 08:35:09;;;;;;;8.93;7.93;;;4.20;99.90;;;;;;5053946;28;20198;-59
2023/12/06 08:37:37;;;;;;;9.05;7.53;;;4.20;99.90;;;;;;5049332;28;20202;-59
2023/12/06 08:40:08;;;;;;;9.18;8.23;;;4.20;99.90;;;;;;5053895;28;20233;-58
2023/12/06 08:42:38;;;;;;;11.25;7.50;;;4.20;99.90;;;;;;5053642;28;20208;-59
2023/12/06 08:45:08;;;;;;;11.18;9.05;;;4.20;99.90;;;;;;5053561;28;20218;-59
2023/12/06 08:47:36;;;;;;;11.65;8.55;;;4.20;99.90;;;;;;5050940;28;20206;-58
2023/12/06 08:50:05;;;;;;;13.50;9.27;;;4.20;99.90;;;;;;5053425;28;20248;-60
2023/12/06 08:52:34;;;;;;;13.10;9.55;;;4.20;99.90;;;;;;5053086;28;20257;-59
2023/12/06 08:55:03;;;;;;;13.45;9.70;;;4.30;99.90;;;;;;5054886;28;20202;-59
2023/12/06 08:57:31;;;;;;;14.05;9.60;;;4.30;99.90;;;;;;5055156;28;20714;-59
2023/12/06 09:00:01;;;;;;;17.60;10.18;;;4.30;99.90;;;;;;5053902;28;20226;-60
2023/12/06 09:02:29;;;;;;;19.77;9.55;;;4.40;99.90;;;;;;5052755;28;20252;-59
2023/12/06 09:04:57;;;;;;;14.75;10.27;;;4.40;99.90;;;;;;5053452;28;20950;-59
2023/12/06 09:07:25;;;;;;;14.07;10.35;;;4.40;99.90;;;;;;5053434;28;20292;-59
2023/12/06 09:09:54;;;;;;;14.50;10.35;;;4.40;99.90;;;;;;5053192;28;20252;-59
2023/12/06 09:12:22;;;;;;;14.77;10.82;;;4.40;99.90;;;;;;5052716;28;20222;-58
2023/12/06 09:14:50;;;;;;;15.70;10.52;;;4.50;99.90;;;;;;5053126;28;20221;-59
2023/12/06 09:17:19;;;;;;;14.95;10.82;;;4.50;99.90;;;;;;5052808;28;20218;-59
2023/12/06 09:19:48;;;;;;;13.57;9.25;;;4.50;99.90;;;;;;5047700;28;20234;-58
2023/12/06 09:22:17;;;;;;;12.00;9.93;;;4.60;99.90;;;;;;5049617;28;20725;-58
2023/12/06 09:24:48;;;;;;;14.15;9.50;;;4.60;99.90;;;;;;5052578;28;20213;-60
2023/12/06 09:27:16;;;;;;;12.25;9.23;;;4.60;99.90;;;;;;5052914;28;20201;-59
2023/12/06 09:29:45;;;;;;;11.88;9.57;;;4.60;99.90;;;;;;5051865;28;20733;-57
2023/12/06 09:32:13;;;;;;;13.77;9.80;;;4.60;99.90;;;;;;5052170;28;20237;-59
2023/12/06 09:34:43;;;;;;;12.70;9.52;;;4.60;99.90;;;;;;5052222;28;20202;-59
2023/12/06 09:37:16;;;;;;;12.70;10.00;;;4.60;99.90;;;;;;5052611;28;20639;-59
2023/12/06 09:39:44;;;;;;;11.70;10.40;;;4.60;99.90;;;;;;5052631;28;20233;-59
2023/12/06 09:42:12;;;;;;;15.57;12.48;;;4.60;99.90;;;;;;5052424;28;20195;-59
2023/12/06 09:44:41;;;;;;;17.85;12.70;;;4.60;99.90;;;;;;5051599;28;20259;-59
2023/12/06 09:47:08;;;;;;;16.00;12.40;;;4.70;99.90;;;;;;5052907;28;20675;-59
2023/12/06 09:49:36;;;;;;;21.35;14.40;;;4.60;99.90;;;;;;5052312;28;20225;-58
2023/12/06 09:52:08;;;;;;;19.08;14.10;;;4.70;99.90;;;;;;5052579;28;20226;-59
2023/12/06 09:54:40;;;;;;;15.55;12.80;;;4.70;99.90;;;;;;5049620;28;20338;-60
2023/12/06 09:57:08;;;;;;;15.40;12.32;;;4.70;99.90;;;;;;5050825;28;20694;-58
2023/12/06 09:59:35;;;;;;;15.07;11.02;;;4.70;99.90;;;;;;5051834;28;20814;-59
2023/12/06 10:02:04;;;;;;;16.10;11.13;;;4.70;99.90;;;;;;5052270;28;20197;-59
2023/12/06 10:04:33;;;;;;;21.88;13.73;;;4.70;99.90;;;;;;5052352;28;20675;-58
2023/12/06 10:07:01;;;;;;;17.20;12.40;;;4.70;99.90;;;;;;5051793;28;20204;-58
2023/12/06 10:09:30;;;;;;;16.38;11.85;;;4.70;99.90;;;;;;5050971;28;20334;-59
2023/12/06 10:12:08;;;;;;;14.70;10.95;;;4.70;99.90;;;;;;5052000;28;20206;-59
2023/12/06 10:14:36;;;;;;;11.32;8.75;;;4.70;99.90;;;;;;5049905;28;20283;-60
2023/12/06 10:17:04;;;;;;;13.05;10.43;;;4.70;99.90;;;;;;5051398;28;20850;-59
2023/12/06 10:19:32;;;;;;;14.63;11.13;;;4.70;99.90;;;;;;5054000;28;20248;-59
2023/12/06 10:22:01;;;;;;;12.05;9.40;;;4.70;99.90;;;;;;5056854;28;20214;-59
2023/12/06 10:24:30;;;;;;;15.73;10.25;;;4.70;99.90;;;;;;5055748;28;20201;-59
2023/12/06 10:27:02;;;;;;;12.40;10.05;;;4.70;99.90;;;;;;5054588;28;20543;-59
2023/12/06 10:29:31;;;;;;;12.68;9.77;;;4.70;99.90;;;;;;5053031;28;20218;-60
2023/12/06 10:31:59;;;;;;;14.07;10.25;;;4.70;99.90;;;;;;5051916;28;20239;-59
2023/12/06 10:34:28;;;;;;;12.55;9.45;;;4.70;99.90;;;;;;5052826;28;20260;-58
2023/12/06 10:36:56;;;;;;;15.32;10.00;;;4.70;99.90;;;;;;5047274;28;20279;-59
2023/12/06 10:39:24;;;;;;;12.88;9.85;;;4.60;99.90;;;;;;5055675;28;20253;-58
2023/12/06 10:41:55;;;;;;;12.88;10.60;;;4.70;99.90;;;;;;5057903;28;20202;-58
2023/12/06 10:44:22;;;;;;;12.25;10.00;;;4.80;99.90;;;;;;5051232;28;20194;-59
2023/12/06 10:46:50;;;;;;;12.38;9.90;;;4.80;99.90;;;;;;5055489;28;20228;-58
2023/12/06 10:49:31;;;;;;;11.65;9.85;;;4.80;99.90;;;;;;5049031;28;20225;-59
2023/12/06 10:51:59;;;;;;;12.98;10.00;;;4.90;99.90;;;;;;5051083;28;20233;-59
2023/12/06 10:54:27;;;;;;;15.02;10.27;;;4.80;99.90;;;;;;5050448;28;20210;-58
2023/12/06 10:56:58;;;;;;;11.57;9.05;;;4.80;99.90;;;;;;5048590;28;20209;-59
2023/12/06 10:59:26;;;;;;;9.05;7.95;;;4.80;99.90;;;;;;5048632;28;20703;-59
2023/12/06 11:01:55;;;;;;;12.75;8.50;;;4.80;99.90;;;;;;5051079;28;20201;-59
2023/12/06 11:04:24;;;;;;;8.50;6.85;;;4.80;99.90;;;;;;5051219;28;20202;-59
2023/12/06 11:06:58;;;;;;;8.88;7.97;;;4.80;99.90;;;;;;5051321;28;20623;-60
2023/12/06 11:09:30;;;;;;;8.48;7.63;;;4.80;99.90;;;;;;5050997;28;20748;-58
2023/12/06 11:12:05;;;;;;;10.57;7.88;;;4.90;99.90;;;;;;5050718;28;20309;-59
2023/12/06 11:14:42;;;;;;;10.60;7.78;;;4.90;99.90;;;;;;5050081;28;20225;-59
2023/12/06 11:17:17;;;;;;;9.57;8.07;;;4.90;99.90;;;;;;5050913;28;20235;-58
2023/12/06 11:19:45;;;;;;;9.13;7.47;;;5.00;99.90;;;;;;5049892;28;20271;-58
2023/12/06 11:22:13;;;;;;;8.68;7.72;;;5.00;99.90;;;;;;5050599;28;20614;-60
2023/12/06 11:24:42;;;;;;;7.28;6.55;;;5.00;99.90;;;;;;5050620;28;20206;-59
2023/12/06 11:27:11;;;;;;;10.57;7.70;;;5.00;99.90;;;;;;5050977;28;20228;-61
2023/12/06 11:29:39;;;;;;;8.93;8.02;;;5.00;99.90;;;;;;5050388;28;20245;-59
2023/12/06 11:32:11;;;;;;;11.07;7.85;;;5.00;99.90;;;;;;5050612;28;20297;-59
2023/12/06 11:34:40;;;;;;;9.13;7.80;;;5.00;99.90;;;;;;5050433;28;20682;-59
2023/12/06 11:37:15;;;;;;;10.35;8.20;;;4.90;99.90;;;;;;5050656;28;20206;-59
2023/12/06 11:39:47;;;;;;;13.60;10.63;;;4.90;99.90;;;;;;5050342;28;20690;-61
2023/12/06 11:42:19;;;;;;;12.40;9.45;;;4.90;99.90;;;;;;5050213;28;20202;-58
2023/12/06 11:44:56;;;;;;;9.18;8.27;;;4.90;99.90;;;;;;5050598;28;20205;-58
2023/12/06 11:47:25;;;;;;;10.10;8.95;;;5.00;99.90;;;;;;5050709;28;20263;-59
2023/12/06 11:49:53;;;;;;;12.07;8.90;;;5.00;99.90;;;;;;5050006;28;20232;-59
2023/12/06 11:52:21;;;;;;;8.65;7.32;;;5.00;99.90;;;;;;5050579;28;20287;-59
2023/12/06 11:54:50;;;;;;;6.35;5.13;;;5.00;99.90;;;;;;5049364;28;20235;-55
2023/12/06 11:57:19;;;;;;;5.78;5.28;;;5.20;99.90;;;;;;5050015;28;20198;-55
2023/12/06 11:59:49;;;;;;;5.13;4.65;;;7.00;99.90;;;;;;5049756;28;20606;-58
2023/12/06 12:02:17;;;;;;;6.65;5.93;;;8.70;99.90;;;;;;5050227;28;20289;-58
2023/12/06 12:04:45;;;;;;;6.05;5.55;;;9.80;99.90;;;;;;5050045;28;20248;-59
2023/12/06 12:07:13;;;;;;;5.90;5.35;;;9.70;99.90;;;;;;5047449;28;20202;-59
2023/12/06 12:09:41;;;;;;;6.88;6.20;;;9.20;99.90;;;;;;5049630;28;20226;-60
2023/12/06 12:12:09;;;;;;;6.50;5.93;;;8.50;99.90;;;;;;5050006;28;20221;-59
2023/12/06 12:14:38;;;;;;;5.55;5.05;;;7.90;99.90;;;;;;5049425;28;20309;-59
2023/12/06 12:17:07;;;;;;;6.32;5.72;;;7.40;99.90;;;;;;5050257;28;20264;-59
2023/12/06 12:19:35;;;;;;;6.28;5.68;;;6.90;99.90;;;;;;5049731;28;20862;-59
2023/12/06 12:22:03;;;;;;;5.38;4.97;;;6.60;99.90;;;;;;5049792;28;20269;-58
2023/12/06 12:24:32;;;;;;;6.60;6.00;;;6.40;99.90;;;;;;5049743;28;20202;-59
2023/12/06 12:27:00;;;;;;;7.63;6.82;;;6.20;99.90;;;;;;5049786;28;20205;-59
2023/12/06 12:29:27;;;;;;;6.40;5.80;;;6.10;99.90;;;;;;5050041;28;20233;-59
2023/12/06 12:31:58;;;;;;;10.13;6.90;;;6.00;99.90;;;;;;5052342;28;20334;-59
2023/12/06 12:34:26;;;;;;;8.25;6.88;;;5.90;99.90;;;;;;5051151;28;20214;-58
2023/12/06 12:36:54;;;;;;;10.80;7.50;;;5.80;99.90;;;;;;5052910;28;20997;-59
2023/12/06 12:39:22;;;;;;;8.48;7.32;;;5.80;99.90;;;;;;5053387;28;20312;-59
2023/12/06 12:41:51;;;;;;;7.57;6.82;;;5.70;99.90;;;;;;5053261;28;20210;-59
2023/12/06 12:44:18;;;;;;;7.85;6.60;;;5.70;99.90;;;;;;5053823;28;20225;-59
2023/12/06 12:46:46;;;;;;;7.28;6.32;;;5.70;99.90;;;;;;5052321;28;20297;-59
2023/12/06 12:49:26;;;;;;;7.32;6.63;;;5.70;99.90;;;;;;5053496;28;20226;-59
2023/12/06 12:51:54;;;;;;;10.13;7.30;;;5.70;99.90;;;;;;5053322;28;20733;-59
2023/12/06 12:54:22;;;;;;;8.18;7.38;;;5.60;99.90;;;;;;5053683;28;20698;-59
2023/12/06 12:56:49;;;;;;;7.55;6.13;;;5.60;99.90;;;;;;5053671;28;20241;-58
2023/12/06 12:59:18;;;;;;;7.30;6.65;;;5.60;99.90;;;;;;5053668;28;20308;-59